Terminal Aerodrome Forecast
Issued by NWS La Crosse, WI

Home | Current Version | Previous Version | Text Only | Print | Product List | Glossary On
Versions: 1 2 3 4 5 6 7 8 9 10 11 12 13 14 15 16 17 18 19 20 21 22
000
FTUS43 KARX 240520
TAFRST
TAF
KRST 240520Z 2406/2506 29004KT 6SM BR OVC012
     FM241100 VRB04KT 5SM BR OVC008
     FM241600 11008KT 6SM BR OVC010
     FM242200 09012G20KT 3SM -SN OVC006
     FM250100 08013KT 1SM -SN OVC003=

USA.gov is the U.S. government's official web portal to all federal, state and local government web resources and services.